createdAt,value
2024-04-24T00:00:11.687Z,6.50
2024-04-24T00:02:38.534Z,6.50
2024-04-24T00:05:06.101Z,6.40
2024-04-24T00:07:33.069Z,6.50
2024-04-24T00:09:59.953Z,6.40
2024-04-24T00:12:26.844Z,6.40
2024-04-24T00:14:53.671Z,6.30
2024-04-24T00:17:20.548Z,6.30
2024-04-24T00:19:47.418Z,6.30
2024-04-24T00:22:14.442Z,6.20
2024-04-24T00:24:41.203Z,6.20
2024-04-24T00:27:07.983Z,6.10
2024-04-24T00:29:34.755Z,6.10
2024-04-24T00:32:06.854Z,6.00
2024-04-24T00:34:34.272Z,6.00
2024-04-24T00:37:01.132Z,6.00
2024-04-24T00:39:28.100Z,5.90
2024-04-24T00:41:55.064Z,5.90
2024-04-24T00:44:21.995Z,5.80
2024-04-24T00:46:50.622Z,5.80
2024-04-24T00:49:18.927Z,5.80
2024-04-24T00:51:47.254Z,5.70
2024-04-24T00:54:14.560Z,5.70
2024-04-24T00:56:41.730Z,5.60
2024-04-24T00:59:08.894Z,5.50
2024-04-24T01:01:35.826Z,5.50
2024-04-24T01:04:02.745Z,5.50
2024-04-24T01:06:29.560Z,5.50
2024-04-24T01:08:56.356Z,5.40
2024-04-24T01:11:23.270Z,5.40
2024-04-24T01:13:50.272Z,5.40
2024-04-24T01:16:20.764Z,5.30
2024-04-24T01:18:54.440Z,5.40
2024-04-24T01:21:24.454Z,5.30
2024-04-24T01:24:01.389Z,5.40
2024-04-24T01:26:50.732Z,5.40
2024-04-24T01:29:18.086Z,5.20
2024-04-24T01:31:45.015Z,5.20
2024-04-24T01:34:11.797Z,5.10
2024-04-24T01:36:38.568Z,5.10
2024-04-24T01:39:05.650Z,5.00
2024-04-24T01:41:32.991Z,5.00
2024-04-24T01:43:59.975Z,5.10
2024-04-24T01:46:26.872Z,5.10
2024-04-24T01:48:55.202Z,5.10
2024-04-24T01:51:22.334Z,5.10
2024-04-24T01:53:49.299Z,5.20
2024-04-24T01:56:16.331Z,5.20
2024-04-24T01:58:43.484Z,5.20
2024-04-24T02:01:10.440Z,5.20
2024-04-24T02:03:37.378Z,5.20
2024-04-24T02:06:04.515Z,5.20
2024-04-24T02:08:31.323Z,5.20
2024-04-24T02:11:00.433Z,5.20
2024-04-24T02:13:27.297Z,5.10
2024-04-24T02:15:54.084Z,5.00
2024-04-24T02:18:20.992Z,5.00
2024-04-24T02:20:47.984Z,4.90
2024-04-24T02:23:21.405Z,4.90
2024-04-24T02:25:49.953Z,4.90
2024-04-24T02:28:16.854Z,4.90
2024-04-24T02:30:43.645Z,4.80
2024-04-24T02:33:10.665Z,4.80
2024-04-24T02:35:37.646Z,4.60
2024-04-24T02:38:04.747Z,4.60
2024-04-24T02:40:34.169Z,4.70
2024-04-24T02:43:00.950Z,4.70
2024-04-24T02:45:27.725Z,4.70
2024-04-24T02:47:54.626Z,4.70
2024-04-24T02:50:21.706Z,4.70
2024-04-24T02:52:48.553Z,4.80
2024-04-24T02:55:15.391Z,4.90
2024-04-24T02:57:42.286Z,4.90
2024-04-24T03:00:09.592Z,4.90
2024-04-24T03:02:39.400Z,5.00
2024-04-24T03:05:06.333Z,5.00
2024-04-24T03:07:33.238Z,4.90
2024-04-24T03:10:00.000Z,4.80
2024-04-24T03:12:27.057Z,4.70
2024-04-24T03:14:53.885Z,4.70
2024-04-24T03:17:20.824Z,4.70
2024-04-24T03:19:47.694Z,4.70
2024-04-24T03:22:14.626Z,4.70
2024-04-24T03:24:43.735Z,4.60
2024-04-24T03:27:10.551Z,4.60
2024-04-24T03:29:38.866Z,4.50
2024-04-24T03:32:05.915Z,4.50
2024-04-24T03:34:32.720Z,4.40
2024-04-24T03:36:59.586Z,4.40
2024-04-24T03:39:26.374Z,4.30
2024-04-24T03:41:53.122Z,4.30
2024-04-24T03:44:20.055Z,4.30
2024-04-24T03:46:47.046Z,4.40
2024-04-24T03:49:13.875Z,4.20
2024-04-24T03:51:40.731Z,4.20
2024-04-24T03:54:07.526Z,4.10
2024-04-24T03:56:34.302Z,4.20
2024-04-24T03:59:01.154Z,4.30
2024-04-24T04:01:29.050Z,4.30
2024-04-24T04:03:56.443Z,4.30
2024-04-24T04:06:23.883Z,4.40
2024-04-24T04:08:50.755Z,4.50
2024-04-24T04:11:17.669Z,4.40
2024-04-24T04:13:44.507Z,4.50
2024-04-24T04:16:11.251Z,4.40
2024-04-24T04:18:38.126Z,4.50
2024-04-24T04:21:05.012Z,4.50
2024-04-24T04:23:31.845Z,4.30
2024-04-24T04:25:58.674Z,4.40
2024-04-24T04:28:25.478Z,4.40
2024-04-24T04:30:52.377Z,4.50
2024-04-24T04:33:19.339Z,4.50
2024-04-24T04:35:46.178Z,4.50
2024-04-24T04:38:13.029Z,4.50
2024-04-24T04:40:39.854Z,4.60
2024-04-24T04:43:06.675Z,4.60
2024-04-24T04:45:33.490Z,4.60
2024-04-24T04:48:00.506Z,4.60
2024-04-24T04:50:27.493Z,4.70
2024-04-24T04:52:56.225Z,4.60
2024-04-24T04:55:23.128Z,4.60
2024-04-24T04:57:49.923Z,4.70
2024-04-24T05:00:16.866Z,4.70
2024-04-24T05:02:44.324Z,4.70
2024-04-24T05:05:11.354Z,4.80
2024-04-24T05:07:38.185Z,4.70
2024-04-24T05:10:05.184Z,4.60
2024-04-24T05:12:31.979Z,4.50
2024-04-24T05:14:58.775Z,4.50
2024-04-24T05:17:25.684Z,4.50
2024-04-24T05:19:52.578Z,4.60
2024-04-24T05:22:20.368Z,4.50
2024-04-24T05:24:47.154Z,4.50
2024-04-24T05:27:32.853Z,4.50
2024-04-24T05:29:59.642Z,4.50
2024-04-24T05:32:26.501Z,4.40
2024-04-24T05:34:53.379Z,4.40
2024-04-24T05:37:20.261Z,4.50
2024-04-24T05:39:47.039Z,4.60
2024-04-24T05:42:13.876Z,4.70
2024-04-24T05:44:40.656Z,4.80
2024-04-24T05:47:07.624Z,4.90
2024-04-24T05:49:34.526Z,4.90
2024-04-24T05:52:01.687Z,4.90
2024-04-24T05:54:29.426Z,5.00
2024-04-24T05:56:56.254Z,5.00
2024-04-24T05:59:23.132Z,5.20
2024-04-24T06:01:49.990Z,5.30
2024-04-24T06:04:16.994Z,5.20
2024-04-24T06:06:43.865Z,5.30
2024-04-24T06:09:10.637Z,5.50
2024-04-24T06:11:37.869Z,5.80
2024-04-24T06:14:04.841Z,6.00
2024-04-24T06:16:31.683Z,6.20
2024-04-24T06:18:58.580Z,6.40
2024-04-24T06:21:26.165Z,6.60
2024-04-24T06:23:52.988Z,6.70
2024-04-24T06:26:19.896Z,6.80
2024-04-24T06:28:47.221Z,6.90
2024-04-24T06:31:14.018Z,7.00
2024-04-24T06:33:40.999Z,7.00
2024-04-24T06:36:08.582Z,7.30
2024-04-24T06:38:35.450Z,7.50
2024-04-24T06:41:02.399Z,7.50
2024-04-24T06:43:32.234Z,7.70
2024-04-24T06:45:59.027Z,8.00
2024-04-24T06:48:25.893Z,7.90
2024-04-24T06:50:52.704Z,7.50
2024-04-24T06:53:19.791Z,7.60
2024-04-24T06:55:46.623Z,7.80
2024-04-24T06:58:13.467Z,7.80
2024-04-24T07:00:42.843Z,7.90
2024-04-24T07:03:09.784Z,7.70
2024-04-24T07:05:36.603Z,7.60
2024-04-24T07:08:04.042Z,7.70
2024-04-24T07:10:30.875Z,7.90
2024-04-24T07:12:57.928Z,7.90
2024-04-24T07:15:24.800Z,8.10
2024-04-24T07:17:52.725Z,8.10
2024-04-24T07:20:19.657Z,8.20
2024-04-24T07:22:46.471Z,8.40
2024-04-24T07:25:13.420Z,8.50
2024-04-24T07:27:40.205Z,8.40
2024-04-24T07:30:07.674Z,8.50
2024-04-24T07:32:34.529Z,8.40
2024-04-24T07:35:01.494Z,8.40
2024-04-24T07:37:28.292Z,8.50
2024-04-24T07:39:55.151Z,8.40
2024-04-24T07:42:21.994Z,8.30
2024-04-24T07:44:48.775Z,8.20
2024-04-24T07:47:15.701Z,8.30
2024-04-24T07:49:42.599Z,8.20
2024-04-24T07:52:09.487Z,8.20
2024-04-24T07:54:36.624Z,8.40
2024-04-24T07:57:03.688Z,8.50
2024-04-24T07:59:30.546Z,8.40
2024-04-24T08:01:58.518Z,7.90
2024-04-24T08:04:25.507Z,7.60
2024-04-24T08:06:52.512Z,7.30
2024-04-24T08:09:19.723Z,7.10
2024-04-24T08:11:46.835Z,7.00
2024-04-24T08:14:14.437Z,7.10
2024-04-24T08:16:41.360Z,7.10
2024-04-24T08:19:08.247Z,7.20
2024-04-24T08:21:37.326Z,7.30
2024-04-24T08:24:04.416Z,7.30
2024-04-24T08:26:36.892Z,7.40
2024-04-24T08:29:03.801Z,7.50
2024-04-24T08:31:30.588Z,7.40
2024-04-24T08:33:58.857Z,7.40
2024-04-24T08:36:25.720Z,7.40
2024-04-24T08:38:55.107Z,7.30
2024-04-24T08:41:22.153Z,7.20
2024-04-24T08:43:52.900Z,7.20
2024-04-24T08:46:20.446Z,7.40
2024-04-24T08:48:51.061Z,7.50
2024-04-24T08:51:18.962Z,7.40
2024-04-24T08:54:00.322Z,7.50
2024-04-24T08:56:31.239Z,7.50
2024-04-24T08:59:04.674Z,7.50
2024-04-24T09:01:36.681Z,7.80
2024-04-24T09:04:08.054Z,7.60
2024-04-24T09:06:36.554Z,7.70
2024-04-24T09:09:03.435Z,7.70
2024-04-24T09:11:31.185Z,7.80
2024-04-24T09:13:59.979Z,7.90
2024-04-24T09:16:27.371Z,8.10
2024-04-24T09:19:04.419Z,7.90
2024-04-24T09:21:32.787Z,8.00
2024-04-24T09:23:59.959Z,7.90
2024-04-24T09:26:27.601Z,7.90
2024-04-24T09:28:54.747Z,8.00
2024-04-24T09:31:23.410Z,8.00
2024-04-24T09:33:51.116Z,8.00
2024-04-24T09:36:18.042Z,8.10
2024-04-24T09:38:46.604Z,8.20
2024-04-24T09:41:13.845Z,8.10
2024-04-24T09:43:41.310Z,8.10
2024-04-24T09:46:08.206Z,8.10
2024-04-24T09:48:35.593Z,8.20
2024-04-24T09:51:02.479Z,8.10
2024-04-24T09:53:29.374Z,8.00
2024-04-24T09:56:05.046Z,7.80
2024-04-24T09:58:37.155Z,7.60
2024-04-24T10:01:07.433Z,7.50
2024-04-24T10:03:40.940Z,7.40
2024-04-24T10:06:09.415Z,7.30
2024-04-24T10:08:38.703Z,7.20
2024-04-24T10:11:08.707Z,7.30
2024-04-24T10:13:38.997Z,7.30
2024-04-24T10:16:07.008Z,7.40
2024-04-24T10:18:36.093Z,7.60
2024-04-24T10:21:04.753Z,7.60
2024-04-24T10:23:32.308Z,7.80
2024-04-24T10:26:00.098Z,7.80
2024-04-24T10:28:30.372Z,7.80
2024-04-24T10:30:59.962Z,7.80
2024-04-24T10:33:28.609Z,7.90
2024-04-24T10:35:56.994Z,7.80
2024-04-24T10:38:26.590Z,7.90
2024-04-24T10:40:54.455Z,8.00
2024-04-24T10:43:24.054Z,8.00
2024-04-24T10:45:54.873Z,7.90
2024-04-24T10:48:21.745Z,7.60
2024-04-24T10:50:51.485Z,7.40
2024-04-24T10:53:19.564Z,7.20
2024-04-24T10:55:54.842Z,7.30
2024-04-24T10:58:23.417Z,7.40
2024-04-24T11:00:50.283Z,7.30
2024-04-24T11:03:18.542Z,7.30
2024-04-24T11:05:45.708Z,7.20
2024-04-24T11:08:20.183Z,7.30
2024-04-24T11:10:51.759Z,7.30
2024-04-24T11:13:18.812Z,7.40
2024-04-24T11:15:54.473Z,7.30
2024-04-24T11:18:28.516Z,7.20
2024-04-24T11:20:55.678Z,7.30
2024-04-24T11:23:22.620Z,7.50
2024-04-24T11:25:58.322Z,7.60
2024-04-24T11:28:27.382Z,7.50
2024-04-24T11:30:54.433Z,7.50
2024-04-24T11:33:22.494Z,7.50
2024-04-24T11:35:50.063Z,7.50
2024-04-24T11:38:17.140Z,7.60
2024-04-24T11:40:44.188Z,7.60
2024-04-24T11:43:11.419Z,7.60
2024-04-24T11:45:38.336Z,7.60
2024-04-24T11:48:07.397Z,7.70
2024-04-24T11:50:34.800Z,7.80
2024-04-24T11:53:03.479Z,7.80
2024-04-24T11:55:35.018Z,7.90
2024-04-24T11:58:12.724Z,7.90
2024-04-24T12:00:40.899Z,8.00
2024-04-24T12:03:08.815Z,8.00
2024-04-24T12:05:35.880Z,8.00
2024-04-24T12:08:03.567Z,8.00
2024-04-24T12:10:30.558Z,7.90
2024-04-24T12:12:57.387Z,7.80
2024-04-24T12:15:24.446Z,7.90
2024-04-24T12:17:51.414Z,8.10
2024-04-24T12:20:18.319Z,8.10
2024-04-24T12:22:45.191Z,8.10
2024-04-24T12:25:12.086Z,8.20
2024-04-24T12:27:39.537Z,8.40
2024-04-24T12:30:07.122Z,8.40
2024-04-24T12:32:38.038Z,8.40
2024-04-24T12:35:05.372Z,8.60
2024-04-24T12:37:32.959Z,8.60
2024-04-24T12:39:59.817Z,8.70
2024-04-24T12:42:26.609Z,8.70
2024-04-24T12:44:53.480Z,8.80
2024-04-24T12:47:20.375Z,9.00
2024-04-24T12:49:50.125Z,9.20
2024-04-24T12:52:16.931Z,9.30
2024-04-24T12:54:44.731Z,9.30
2024-04-24T12:57:11.507Z,9.30
2024-04-24T12:59:38.443Z,9.40
2024-04-24T13:02:05.654Z,9.50
2024-04-24T13:04:32.535Z,9.90
2024-04-24T13:06:59.302Z,10.00
2024-04-24T13:09:26.273Z,9.90
2024-04-24T13:11:53.216Z,9.90
2024-04-24T13:14:20.118Z,9.80
2024-04-24T13:16:47.050Z,9.80
2024-04-24T13:19:14.269Z,9.60
2024-04-24T13:21:41.240Z,9.60
2024-04-24T13:24:08.914Z,9.70
2024-04-24T13:26:35.914Z,9.80
2024-04-24T13:29:03.173Z,9.70
2024-04-24T13:31:29.970Z,9.60
2024-04-24T13:33:56.985Z,9.30
2024-04-24T13:36:23.855Z,9.40
2024-04-24T13:38:54.719Z,9.40
2024-04-24T13:41:21.649Z,9.10
2024-04-24T13:43:49.220Z,9.10
2024-04-24T13:46:19.083Z,9.20
2024-04-24T13:48:46.050Z,9.20
2024-04-24T13:51:12.980Z,9.10
2024-04-24T13:53:39.803Z,9.10
2024-04-24T13:56:06.631Z,9.20
2024-04-24T13:58:33.417Z,9.10
2024-04-24T14:01:02.469Z,9.10
2024-04-24T14:03:29.490Z,9.00
2024-04-24T14:05:56.458Z,8.90
2024-04-24T14:08:23.495Z,8.80
2024-04-24T14:10:50.651Z,8.10
2024-04-24T14:13:17.501Z,7.40
2024-04-24T14:15:44.256Z,7.20
2024-04-24T14:18:11.099Z,7.10
2024-04-24T14:20:38.118Z,7.00
2024-04-24T14:23:05.836Z,6.90
2024-04-24T14:25:35.249Z,6.90
2024-04-24T14:28:02.641Z,7.10
2024-04-24T14:30:29.466Z,7.20
2024-04-24T14:32:56.617Z,7.10
2024-04-24T14:35:23.567Z,7.20
2024-04-24T14:37:52.084Z,7.60
2024-04-24T14:40:18.924Z,7.80
2024-04-24T14:42:46.551Z,7.90
2024-04-24T14:45:14.311Z,7.80
2024-04-24T14:47:41.651Z,7.80
2024-04-24T14:50:08.740Z,7.80
2024-04-24T14:52:35.655Z,7.90
2024-04-24T14:55:05.431Z,8.00
2024-04-24T14:57:32.386Z,8.00
2024-04-24T14:59:59.159Z,7.90
2024-04-24T15:02:26.004Z,7.90
2024-04-24T15:04:52.876Z,8.20
2024-04-24T15:07:19.776Z,8.40
2024-04-24T15:09:46.574Z,8.60
2024-04-24T15:12:14.953Z,8.70
2024-04-24T15:14:41.903Z,8.80
2024-04-24T15:17:08.862Z,8.90
2024-04-24T15:19:35.768Z,8.80
2024-04-24T15:22:02.620Z,8.60
2024-04-24T15:24:29.482Z,9.00
2024-04-24T15:26:56.271Z,9.00
2024-04-24T15:29:23.209Z,9.30
2024-04-24T15:31:50.060Z,9.40
2024-04-24T15:34:18.083Z,9.50
2024-04-24T15:36:44.967Z,9.40
2024-04-24T15:39:14.084Z,9.40
2024-04-24T15:41:42.491Z,9.10
2024-04-24T15:44:09.329Z,9.10
2024-04-24T15:46:36.185Z,9.20
2024-04-24T15:49:02.964Z,9.40
2024-04-24T15:51:29.915Z,9.20
2024-04-24T15:53:56.812Z,9.20
2024-04-24T15:56:23.759Z,9.30
2024-04-24T15:58:50.625Z,9.20
2024-04-24T16:01:17.588Z,9.00
2024-04-24T16:03:44.391Z,8.90
2024-04-24T16:06:11.189Z,9.00
2024-04-24T16:08:38.607Z,9.00
2024-04-24T16:11:05.501Z,8.80
2024-04-24T16:13:32.365Z,8.50
2024-04-24T16:15:59.318Z,8.50
2024-04-24T16:18:32.863Z,8.30
2024-04-24T16:21:03.410Z,8.30
2024-04-24T16:23:30.336Z,8.30
2024-04-24T16:25:57.299Z,7.70
2024-04-24T16:28:24.293Z,7.10
2024-04-24T16:30:51.103Z,6.60
2024-04-24T16:33:18.040Z,6.40
2024-04-24T16:35:44.846Z,6.40
2024-04-24T16:38:11.707Z,6.30
2024-04-24T16:40:40.560Z,6.30
2024-04-24T16:43:07.384Z,6.30
2024-04-24T16:45:34.547Z,6.30
2024-04-24T16:48:01.646Z,6.30
2024-04-24T16:50:28.542Z,6.40
2024-04-24T16:52:55.386Z,6.60
2024-04-24T16:55:22.963Z,6.60
2024-04-24T16:57:49.808Z,6.50
2024-04-24T17:00:16.816Z,6.50
2024-04-24T17:02:43.823Z,6.60
2024-04-24T17:05:11.256Z,6.50
2024-04-24T17:07:38.366Z,6.50
2024-04-24T17:10:05.607Z,6.50
2024-04-24T17:12:32.489Z,6.50
2024-04-24T17:14:59.644Z,6.60
2024-04-24T17:17:26.606Z,6.40
2024-04-24T17:19:53.558Z,6.40
2024-04-24T17:22:20.459Z,6.60
2024-04-24T17:24:47.630Z,7.00
2024-04-24T17:27:15.820Z,7.20
2024-04-24T17:29:42.708Z,7.60
2024-04-24T17:32:10.552Z,7.60
2024-04-24T17:34:37.385Z,7.70
2024-04-24T17:37:04.243Z,7.80
2024-04-24T17:39:31.070Z,7.90
2024-04-24T17:42:00.464Z,8.10
2024-04-24T17:44:27.854Z,8.10
2024-04-24T17:46:54.678Z,8.00
2024-04-24T17:49:21.498Z,8.00
2024-04-24T17:51:48.413Z,8.10
2024-04-24T17:54:15.240Z,8.20
2024-04-24T17:56:42.098Z,8.20
2024-04-24T17:59:08.916Z,8.10
2024-04-24T18:01:35.937Z,8.00
2024-04-24T18:04:03.162Z,8.00
2024-04-24T18:06:31.364Z,7.90
2024-04-24T18:08:58.182Z,7.80
2024-04-24T18:11:25.247Z,7.70
2024-04-24T18:13:52.301Z,7.80
2024-04-24T18:16:19.870Z,7.80
2024-04-24T18:18:47.404Z,7.70
2024-04-24T18:21:14.242Z,7.70
2024-04-24T18:23:41.158Z,7.70
2024-04-24T18:26:08.132Z,7.70
2024-04-24T18:28:36.313Z,7.60
2024-04-24T18:31:06.405Z,7.50
2024-04-24T18:33:33.457Z,7.70
2024-04-24T18:36:00.459Z,7.60
2024-04-24T18:38:27.386Z,7.60
2024-04-24T18:40:54.265Z,7.50
2024-04-24T18:43:21.155Z,7.50
2024-04-24T18:45:48.560Z,7.60
2024-04-24T18:48:15.530Z,7.60
2024-04-24T18:50:43.199Z,7.60
2024-04-24T18:53:10.113Z,7.40
2024-04-24T18:55:37.003Z,7.40
2024-04-24T18:58:03.941Z,7.20
2024-04-24T19:00:30.859Z,7.20
2024-04-24T19:02:57.990Z,7.30
2024-04-24T19:05:25.109Z,7.10
2024-04-24T19:07:52.100Z,7.10
2024-04-24T19:10:19.995Z,7.10
2024-04-24T19:12:46.835Z,7.00
2024-04-24T19:15:13.775Z,7.00
2024-04-24T19:17:42.677Z,7.10
2024-04-24T19:20:10.834Z,7.20
2024-04-24T19:22:39.259Z,7.20
2024-04-24T19:25:06.426Z,7.20
2024-04-24T19:27:40.544Z,6.90
2024-04-24T19:30:09.979Z,6.80
2024-04-24T19:32:37.616Z,6.70
2024-04-24T19:35:05.055Z,6.80
2024-04-24T19:37:32.296Z,6.80
2024-04-24T19:39:59.170Z,6.90
2024-04-24T19:42:26.143Z,6.80
2024-04-24T19:44:53.894Z,6.80
2024-04-24T19:47:20.923Z,6.80
2024-04-24T19:49:52.049Z,6.80
2024-04-24T19:52:18.977Z,6.70
2024-04-24T19:54:45.976Z,6.70
2024-04-24T19:57:13.797Z,6.70
2024-04-24T19:59:41.062Z,6.70
2024-04-24T20:02:08.245Z,6.70
2024-04-24T20:04:35.459Z,6.70
2024-04-24T20:07:02.570Z,6.60
2024-04-24T20:09:29.621Z,6.50
2024-04-24T20:11:56.548Z,6.60
2024-04-24T20:14:23.656Z,6.50
2024-04-24T20:16:51.646Z,6.40
2024-04-24T20:19:18.620Z,6.50
2024-04-24T20:21:45.953Z,6.40
2024-04-24T20:24:15.522Z,6.30
2024-04-24T20:26:48.742Z,6.30
2024-04-24T20:29:15.696Z,6.20
2024-04-24T20:31:42.507Z,6.20
2024-04-24T20:34:09.871Z,6.20
2024-04-24T20:36:36.868Z,6.10
2024-04-24T20:39:09.890Z,6.00
2024-04-24T20:41:38.185Z,6.00
2024-04-24T20:44:05.726Z,6.10
2024-04-24T20:46:32.596Z,6.10
2024-04-24T20:48:59.503Z,6.00
2024-04-24T20:51:26.431Z,6.00
2024-04-24T20:53:53.287Z,6.10
2024-04-24T20:56:20.698Z,6.20
2024-04-24T20:58:47.619Z,6.10
2024-04-24T21:01:15.161Z,6.20
2024-04-24T21:03:42.319Z,6.10
2024-04-24T21:06:11.383Z,6.10
2024-04-24T21:08:39.750Z,6.00
2024-04-24T21:11:08.322Z,6.10
2024-04-24T21:13:35.209Z,6.00
2024-04-24T21:16:10.758Z,6.00
2024-04-24T21:18:38.056Z,6.00
2024-04-24T21:21:05.165Z,5.90
2024-04-24T21:23:32.047Z,5.80
2024-04-24T21:26:02.507Z,5.80
2024-04-24T21:28:29.442Z,5.70
2024-04-24T21:31:01.721Z,5.70
2024-04-24T21:33:35.865Z,5.70
2024-04-24T21:36:03.389Z,5.90
2024-04-24T21:38:32.628Z,5.80
2024-04-24T21:40:59.613Z,5.80
2024-04-24T21:43:29.144Z,5.70
2024-04-24T21:45:56.047Z,5.80
2024-04-24T21:48:22.873Z,5.80
2024-04-24T21:50:51.627Z,5.70
2024-04-24T21:53:18.529Z,5.60
2024-04-24T21:55:45.345Z,5.30
2024-04-24T21:58:12.164Z,5.30
2024-04-24T22:00:39.129Z,5.30
2024-04-24T22:03:06.038Z,5.40
2024-04-24T22:05:34.888Z,5.30
2024-04-24T22:08:01.834Z,5.40
2024-04-24T22:10:28.703Z,5.40
2024-04-24T22:13:01.169Z,5.50
2024-04-24T22:15:33.955Z,5.50
2024-04-24T22:18:02.615Z,5.40
2024-04-24T22:20:29.495Z,5.40
2024-04-24T22:22:56.384Z,5.40
2024-04-24T22:25:23.397Z,5.30
2024-04-24T22:27:50.895Z,5.30
2024-04-24T22:30:18.000Z,5.30
2024-04-24T22:32:44.906Z,5.40
2024-04-24T22:35:11.882Z,5.30
2024-04-24T22:37:38.732Z,5.10
2024-04-24T22:40:06.022Z,5.20
2024-04-24T22:42:32.819Z,5.30
2024-04-24T22:44:59.641Z,5.30
2024-04-24T22:47:26.625Z,5.20
2024-04-24T22:49:53.489Z,5.20
2024-04-24T22:52:20.276Z,5.00
2024-04-24T22:54:47.058Z,5.00
2024-04-24T22:57:13.898Z,4.80
2024-04-24T22:59:40.809Z,4.80
2024-04-24T23:02:07.917Z,5.00
2024-04-24T23:04:34.779Z,5.00
2024-04-24T23:07:01.677Z,5.00
2024-04-24T23:09:28.515Z,5.00
2024-04-24T23:11:55.530Z,4.90
2024-04-24T23:14:26.234Z,5.00
2024-04-24T23:16:54.426Z,4.90
2024-04-24T23:19:21.910Z,5.00
2024-04-24T23:21:49.315Z,5.10
2024-04-24T23:24:16.667Z,5.10
2024-04-24T23:26:48.560Z,4.90
2024-04-24T23:29:15.774Z,5.10
2024-04-24T23:31:42.648Z,5.20
2024-04-24T23:34:09.482Z,5.20
2024-04-24T23:36:36.266Z,5.10
2024-04-24T23:39:03.047Z,5.10
2024-04-24T23:41:29.875Z,5.10
2024-04-24T23:43:56.708Z,5.00
2024-04-24T23:46:23.581Z,5.00
2024-04-24T23:48:52.380Z,5.00
2024-04-24T23:51:19.320Z,5.10
2024-04-24T23:53:46.176Z,5.10
2024-04-24T23:56:13.021Z,5.20
2024-04-24T23:58:39.926Z,5.20
